createdAt,value
2018-06-12T00:01:32.636Z,14.64
2018-06-12T00:04:00.644Z,14.71
2018-06-12T00:06:28.697Z,14.70
2018-06-12T00:08:56.700Z,14.67
2018-06-12T00:11:24.724Z,14.66
2018-06-12T00:13:52.718Z,14.76
2018-06-12T00:16:20.728Z,14.68
2018-06-12T00:18:48.768Z,14.68
2018-06-12T00:21:16.844Z,14.67
2018-06-12T00:23:44.864Z,14.57
2018-06-12T00:26:12.888Z,14.66
2018-06-12T00:28:41.061Z,14.63
2018-06-12T00:31:09.120Z,14.62
2018-06-12T00:33:37.160Z,14.68
2018-06-12T00:36:05.164Z,14.77
2018-06-12T00:38:33.188Z,14.77
2018-06-12T00:41:01.240Z,14.76
2018-06-12T00:43:29.284Z,14.88
2018-06-12T00:45:58.317Z,14.95
2018-06-12T00:48:27.376Z,14.95
2018-06-12T00:50:55.384Z,14.92
2018-06-12T00:53:23.445Z,15.11
2018-06-12T00:55:51.408Z,15.30
2018-06-12T00:58:19.431Z,15.33
2018-06-12T01:00:47.454Z,15.29
2018-06-12T01:03:15.481Z,15.11
2018-06-12T01:05:43.540Z,15.17
2018-06-12T01:08:11.588Z,15.24
2018-06-12T01:10:39.568Z,15.17
2018-06-12T01:13:07.561Z,15.18
2018-06-12T01:15:35.562Z,15.11
2018-06-12T01:18:03.588Z,15.25
2018-06-12T01:20:31.896Z,15.36
2018-06-12T01:22:59.933Z,15.57
2018-06-12T01:25:28.005Z,15.12
2018-06-12T01:27:56.041Z,14.76
2018-06-12T01:30:24.071Z,14.78
2018-06-12T01:32:52.073Z,14.95
2018-06-12T01:35:20.123Z,15.03
2018-06-12T01:37:48.140Z,14.87
2018-06-12T01:40:16.158Z,14.83
2018-06-12T01:42:44.156Z,14.83
2018-06-12T01:45:12.145Z,15.03
2018-06-12T01:47:40.164Z,15.14
2018-06-12T01:50:08.176Z,15.41
2018-06-12T01:52:36.183Z,15.48
2018-06-12T01:55:04.185Z,15.64
2018-06-12T01:57:32.197Z,15.68
2018-06-12T02:00:00.168Z,15.77
2018-06-12T02:02:28.182Z,15.77
2018-06-12T02:04:56.185Z,15.62
2018-06-12T02:07:24.217Z,15.40
2018-06-12T02:09:52.209Z,15.44
2018-06-12T02:12:20.200Z,15.55
2018-06-12T02:14:48.202Z,15.64
2018-06-12T02:17:16.234Z,15.69
2018-06-12T02:19:44.229Z,15.54
2018-06-12T02:22:12.292Z,15.61
2018-06-12T02:24:40.330Z,15.64
2018-06-12T02:27:09.036Z,15.39
2018-06-12T02:29:37.092Z,15.39
2018-06-12T02:32:05.320Z,15.39
2018-06-12T02:34:33.344Z,15.45
2018-06-12T02:37:01.366Z,15.57
2018-06-12T02:39:29.380Z,15.65
2018-06-12T02:41:57.384Z,15.74
2018-06-12T02:44:25.410Z,15.66
2018-06-12T02:46:53.456Z,15.76
2018-06-12T02:49:21.457Z,15.76
2018-06-12T02:51:49.453Z,15.83
2018-06-12T02:54:17.463Z,15.82
2018-06-12T02:56:45.468Z,15.97
2018-06-12T02:59:13.492Z,15.98
2018-06-12T03:01:41.528Z,15.76
2018-06-12T03:04:09.545Z,15.84
2018-06-12T03:06:37.537Z,15.89
2018-06-12T03:09:08.340Z,15.91
2018-06-12T03:11:36.390Z,16.00
2018-06-12T03:14:04.388Z,16.03
2018-06-12T03:16:32.415Z,16.16
2018-06-12T03:19:00.924Z,16.29
2018-06-12T03:21:28.912Z,16.30
2018-06-12T03:23:56.921Z,16.37
2018-06-12T03:26:24.921Z,16.31
2018-06-12T03:28:52.977Z,16.30
2018-06-12T03:31:21.025Z,16.28
2018-06-12T03:33:49.038Z,16.31
2018-06-12T03:36:17.040Z,16.18
2018-06-12T03:38:45.089Z,16.27
2018-06-12T03:41:13.101Z,16.25
2018-06-12T03:43:41.144Z,16.35
2018-06-12T03:46:09.157Z,16.20
2018-06-12T03:48:37.252Z,16.32
2018-06-12T03:51:05.339Z,16.29
2018-06-12T03:53:33.418Z,16.30
2018-06-12T03:56:01.454Z,16.25
2018-06-12T03:58:29.473Z,16.25
2018-06-12T04:00:58.496Z,16.32
2018-06-12T04:03:26.521Z,16.40
2018-06-12T04:05:54.534Z,16.50
2018-06-12T04:08:22.616Z,16.37
2018-06-12T04:10:50.598Z,16.35
2018-06-12T04:13:18.576Z,16.40
2018-06-12T04:15:46.573Z,16.40
2018-06-12T04:18:14.633Z,16.55
2018-06-12T04:20:42.680Z,16.49
2018-06-12T04:23:10.660Z,16.52
2018-06-12T04:25:38.677Z,16.61
2018-06-12T04:28:06.643Z,16.60
2018-06-12T04:30:34.643Z,16.72
2018-06-12T04:33:02.642Z,16.89
2018-06-12T04:35:30.664Z,17.01
2018-06-12T04:37:58.692Z,16.74
2018-06-12T04:40:26.686Z,16.84
2018-06-12T04:42:54.681Z,16.86
2018-06-12T04:45:22.654Z,16.80
2018-06-12T04:47:50.667Z,16.84
2018-06-12T04:50:18.676Z,17.04
2018-06-12T04:52:46.724Z,17.09
2018-06-12T04:55:14.749Z,16.91
2018-06-12T04:57:42.792Z,17.19
2018-06-12T05:00:10.828Z,17.34
2018-06-12T05:02:38.842Z,17.40
2018-06-12T05:05:06.840Z,17.50
2018-06-12T05:07:34.830Z,17.56
2018-06-12T05:10:02.900Z,17.70
2018-06-12T05:12:30.985Z,17.76
2018-06-12T05:14:59.004Z,17.51
2018-06-12T05:17:27.026Z,17.56
2018-06-12T05:19:55.027Z,17.76
2018-06-12T05:22:23.053Z,17.86
2018-06-12T05:24:51.133Z,18.01
2018-06-12T05:27:19.121Z,17.83
2018-06-12T05:29:47.172Z,17.85
2018-06-12T05:32:15.163Z,17.94
2018-06-12T05:34:43.209Z,17.98
2018-06-12T05:37:11.217Z,17.96
2018-06-12T05:39:39.313Z,18.11
2018-06-12T05:42:07.329Z,18.23
2018-06-12T05:44:35.370Z,18.40
2018-06-12T05:47:03.361Z,18.40
2018-06-12T05:49:31.396Z,18.38
2018-06-12T05:51:59.409Z,18.29
2018-06-12T05:54:27.422Z,18.32
2018-06-12T05:56:55.402Z,18.33
2018-06-12T05:59:23.377Z,18.37
2018-06-12T06:01:51.369Z,18.32
2018-06-12T06:04:20.072Z,18.36
2018-06-12T06:06:48.120Z,18.41
2018-06-12T06:09:16.161Z,18.35
2018-06-12T06:11:44.160Z,18.54
2018-06-12T06:14:12.213Z,18.60
2018-06-12T06:16:40.275Z,18.46
2018-06-12T06:19:08.282Z,18.48
2018-06-12T06:21:36.288Z,18.39
2018-06-12T06:24:04.477Z,18.37
2018-06-12T06:26:32.961Z,18.49
2018-06-12T06:29:01.113Z,18.57
2018-06-12T06:31:29.121Z,18.74
2018-06-12T06:33:57.158Z,18.88
2018-06-12T06:36:25.241Z,19.26
2018-06-12T06:38:53.261Z,19.30
2018-06-12T06:41:21.313Z,19.33
2018-06-12T06:43:49.329Z,19.30
2018-06-12T06:46:17.351Z,19.27
2018-06-12T06:48:45.464Z,19.23
2018-06-12T06:51:13.504Z,19.22
2018-06-12T06:53:41.581Z,19.06
2018-06-12T06:56:09.596Z,19.02
2018-06-12T06:58:37.620Z,19.23
2018-06-12T07:01:05.635Z,19.18
2018-06-12T07:03:33.732Z,19.33
2018-06-12T07:06:01.741Z,19.31
2018-06-12T07:08:29.733Z,19.62
2018-06-12T07:10:57.778Z,19.48
2018-06-12T07:13:25.769Z,19.30
2018-06-12T07:15:53.857Z,19.35
2018-06-12T07:18:21.864Z,19.17
2018-06-12T07:21:22.977Z,19.29
2018-06-12T07:23:51.001Z,19.25
2018-06-12T07:26:19.012Z,18.89
2018-06-12T07:28:47.009Z,18.97
2018-06-12T07:31:15.080Z,18.95
2018-06-12T07:33:43.078Z,19.03
2018-06-12T07:36:11.104Z,18.88
2018-06-12T07:38:39.099Z,18.99
2018-06-12T07:41:07.112Z,19.08
2018-06-12T07:43:35.250Z,18.92
2018-06-12T07:46:03.272Z,19.10
2018-06-12T07:48:31.389Z,19.18
2018-06-12T07:50:59.394Z,19.42
2018-06-12T07:53:27.384Z,19.52
2018-06-12T07:55:55.353Z,19.54
2018-06-12T07:58:23.380Z,19.53
2018-06-12T08:00:51.450Z,19.63
2018-06-12T08:03:19.461Z,19.72
2018-06-12T08:05:47.472Z,19.70
2018-06-12T08:08:15.474Z,19.52
2018-06-12T08:10:43.531Z,19.66
2018-06-12T08:13:11.567Z,19.79
2018-06-12T08:15:39.549Z,19.74
2018-06-12T08:18:07.552Z,19.84
2018-06-12T08:20:35.555Z,19.92
2018-06-12T08:23:03.596Z,20.13
2018-06-12T08:25:31.721Z,19.91
2018-06-12T08:27:59.784Z,19.70
2018-06-12T08:30:27.962Z,19.91
2018-06-12T08:32:55.890Z,19.87
2018-06-12T08:35:23.941Z,19.50
2018-06-12T08:37:51.945Z,19.24
2018-06-12T08:40:19.972Z,19.33
2018-06-12T08:42:47.997Z,19.39
2018-06-12T08:45:16.014Z,19.31
2018-06-12T08:47:44.026Z,19.48
2018-06-12T08:50:12.097Z,19.84
2018-06-12T08:52:40.143Z,20.06
2018-06-12T08:55:08.119Z,20.72
2018-06-12T08:57:36.148Z,21.35
2018-06-12T09:00:04.717Z,21.57
2018-06-12T09:02:32.772Z,21.81
2018-06-12T09:05:00.796Z,21.84
2018-06-12T09:07:28.825Z,21.95
2018-06-12T09:09:56.888Z,21.57
2018-06-12T09:12:25.604Z,21.13
2018-06-12T09:14:53.669Z,20.99
2018-06-12T09:17:21.967Z,20.82
2018-06-12T09:19:49.981Z,20.54
2018-06-12T09:22:18.028Z,20.28
2018-06-12T09:24:46.129Z,19.94
2018-06-12T09:27:14.157Z,20.00
2018-06-12T09:29:42.164Z,19.88
2018-06-12T09:32:10.153Z,19.96
2018-06-12T09:34:38.151Z,20.06
2018-06-12T09:37:06.140Z,20.41
2018-06-12T09:39:34.152Z,20.38
2018-06-12T09:42:02.177Z,20.50
2018-06-12T09:44:30.597Z,20.56
2018-06-12T09:46:58.612Z,20.30
2018-06-12T09:49:26.636Z,20.40
2018-06-12T09:51:55.256Z,20.55
2018-06-12T09:54:23.565Z,20.65
2018-06-12T09:56:51.625Z,20.92
2018-06-12T09:59:19.625Z,21.06
2018-06-12T10:01:47.641Z,21.17
2018-06-12T10:04:15.673Z,21.39
2018-06-12T10:06:43.696Z,21.35
2018-06-12T10:09:11.738Z,21.33
2018-06-12T10:11:39.772Z,21.32
2018-06-12T10:14:07.796Z,21.30
2018-06-12T10:16:35.816Z,21.55
2018-06-12T10:19:03.814Z,21.51
2018-06-12T10:21:31.808Z,21.63
2018-06-12T10:23:59.860Z,21.73
2018-06-12T10:26:27.841Z,21.83
2018-06-12T10:28:55.825Z,22.03
2018-06-12T10:31:23.869Z,21.85
2018-06-12T10:33:51.856Z,21.70
2018-06-12T10:36:19.897Z,21.45
2018-06-12T10:38:47.914Z,21.52
2018-06-12T10:41:15.952Z,21.08
2018-06-12T10:43:43.979Z,21.13
2018-06-12T10:46:11.980Z,21.16
2018-06-12T10:48:39.965Z,20.95
2018-06-12T10:51:07.986Z,20.81
2018-06-12T10:53:35.970Z,21.05
2018-06-12T10:56:04.058Z,21.08
2018-06-12T10:58:32.048Z,20.61
2018-06-12T11:01:00.080Z,20.20
2018-06-12T11:03:28.096Z,20.17
2018-06-12T11:05:56.091Z,19.93
2018-06-12T11:08:24.102Z,19.88
2018-06-12T11:10:52.153Z,19.99
2018-06-12T11:13:20.135Z,20.05
2018-06-12T11:15:48.184Z,20.00
2018-06-12T11:18:16.205Z,20.07
2018-06-12T11:20:44.261Z,20.23
2018-06-12T11:23:12.268Z,20.29
2018-06-12T11:25:40.290Z,20.61
2018-06-12T11:28:08.425Z,20.84
2018-06-12T11:30:36.445Z,20.70
2018-06-12T11:33:04.448Z,20.77
2018-06-12T11:35:32.449Z,21.05
2018-06-12T11:38:00.462Z,21.45
2018-06-12T11:40:28.495Z,21.70
2018-06-12T11:42:56.499Z,21.49
2018-06-12T11:45:24.542Z,21.32
2018-06-12T11:47:52.559Z,21.23
2018-06-12T11:50:20.582Z,21.10
2018-06-12T11:52:48.576Z,21.13
2018-06-12T11:55:16.559Z,20.81
2018-06-12T11:57:44.535Z,20.56
2018-06-12T12:00:12.532Z,20.47
2018-06-12T12:02:40.536Z,20.27
2018-06-12T12:05:08.545Z,20.11
2018-06-12T12:07:36.572Z,20.21
2018-06-12T12:10:04.593Z,20.43
2018-06-12T12:12:32.585Z,20.58
2018-06-12T12:15:00.658Z,21.03
2018-06-12T12:17:28.656Z,21.47
2018-06-12T12:19:56.729Z,21.34
2018-06-12T12:22:24.744Z,21.57
2018-06-12T12:24:52.773Z,21.70
2018-06-12T12:27:20.831Z,21.31
2018-06-12T12:29:48.863Z,21.59
2018-06-12T12:32:16.945Z,21.95
2018-06-12T12:34:44.954Z,21.93
2018-06-12T12:37:12.956Z,22.11
2018-06-12T12:39:40.987Z,22.38
2018-06-12T12:42:09.017Z,22.63
2018-06-12T12:44:37.050Z,22.46
2018-06-12T12:47:05.050Z,22.51
2018-06-12T12:49:33.053Z,22.27
2018-06-12T12:52:01.092Z,22.40
2018-06-12T12:54:29.148Z,22.58
2018-06-12T12:56:57.189Z,22.90
2018-06-12T12:59:25.188Z,22.40
2018-06-12T13:01:53.173Z,21.61
2018-06-12T13:04:21.152Z,21.58
2018-06-12T13:06:49.196Z,21.76
2018-06-12T13:09:17.218Z,21.65
2018-06-12T13:11:45.203Z,21.89
2018-06-12T13:14:13.188Z,21.60
2018-06-12T13:16:41.203Z,21.81
2018-06-12T13:19:09.228Z,22.00
2018-06-12T13:21:37.393Z,22.18
2018-06-12T13:24:05.417Z,22.29
2018-06-12T13:26:33.446Z,22.27
2018-06-12T13:29:01.427Z,22.04
2018-06-12T13:31:29.400Z,21.87
2018-06-12T13:33:57.466Z,21.73
2018-06-12T13:36:25.433Z,21.44
2018-06-12T13:38:53.437Z,21.05
2018-06-12T13:41:21.462Z,21.17
2018-06-12T13:43:49.453Z,21.13
2018-06-12T13:46:17.473Z,21.30
2018-06-12T13:48:45.581Z,21.46
2018-06-12T13:51:13.596Z,21.51
2018-06-12T13:53:41.588Z,21.45
2018-06-12T13:56:09.657Z,21.67
2018-06-12T13:58:37.648Z,21.95
2018-06-12T14:01:05.716Z,21.94
2018-06-12T14:03:33.787Z,22.13
2018-06-12T14:06:01.801Z,22.22
2018-06-12T14:08:29.788Z,22.18
2018-06-12T14:10:57.821Z,22.15
2018-06-12T14:13:25.881Z,22.00
2018-06-12T14:15:53.837Z,21.87
2018-06-12T14:18:21.833Z,21.63
2018-06-12T14:20:49.894Z,21.54
2018-06-12T14:23:17.928Z,21.78
2018-06-12T14:25:45.932Z,22.10
2018-06-12T14:28:14.017Z,22.11
2018-06-12T14:30:41.978Z,22.02
2018-06-12T14:33:09.963Z,21.97
2018-06-12T14:35:37.960Z,22.03
2018-06-12T14:38:06.005Z,21.78
2018-06-12T14:40:34.046Z,21.68
2018-06-12T14:43:02.041Z,21.74
2018-06-12T14:45:30.053Z,21.37
2018-06-12T14:47:58.124Z,21.02
2018-06-12T14:50:26.174Z,20.92
2018-06-12T14:52:54.149Z,20.66
2018-06-12T14:55:22.194Z,20.85
2018-06-12T14:57:50.208Z,20.90
2018-06-12T15:00:18.345Z,21.00
2018-06-12T15:02:46.318Z,21.25
2018-06-12T15:05:14.387Z,21.35
2018-06-12T15:07:42.339Z,21.00
2018-06-12T15:10:10.310Z,21.01
2018-06-12T15:12:38.357Z,20.83
2018-06-12T15:15:06.308Z,20.86
2018-06-12T15:17:34.338Z,21.06
2018-06-12T15:20:02.368Z,21.35
2018-06-12T15:22:30.357Z,21.42
2018-06-12T15:24:58.373Z,21.36
2018-06-12T15:27:26.416Z,21.36
2018-06-12T15:29:54.425Z,21.34
2018-06-12T15:32:22.418Z,21.17
2018-06-12T15:34:50.433Z,21.08
2018-06-12T15:37:18.469Z,21.18
2018-06-12T15:39:46.489Z,21.10
2018-06-12T15:42:14.484Z,21.06
2018-06-12T15:44:42.505Z,20.76
2018-06-12T15:47:10.528Z,20.91
2018-06-12T15:49:38.556Z,20.89
2018-06-12T15:52:06.702Z,20.75
2018-06-12T15:54:34.709Z,20.63
2018-06-12T15:57:02.734Z,20.36
2018-06-12T15:59:30.724Z,20.32
2018-06-12T16:01:58.756Z,20.45
2018-06-12T16:04:26.829Z,20.43
2018-06-12T16:06:54.880Z,20.40
2018-06-12T16:09:22.917Z,20.55
2018-06-12T16:11:50.922Z,20.37
2018-06-12T16:14:18.925Z,20.39
2018-06-12T16:16:46.985Z,20.35
2018-06-12T16:19:15.029Z,20.24
2018-06-12T16:21:42.972Z,20.17
2018-06-12T16:24:10.977Z,20.09
2018-06-12T16:26:38.978Z,20.08
2018-06-12T16:29:07.132Z,20.00
2018-06-12T16:31:35.108Z,20.10
2018-06-12T16:34:03.110Z,19.92
2018-06-12T16:36:31.126Z,19.78
2018-06-12T16:38:59.177Z,19.91
2018-06-12T16:41:27.268Z,19.87
2018-06-12T16:43:55.249Z,19.42
2018-06-12T16:46:23.276Z,19.43
2018-06-12T16:48:51.259Z,19.35
2018-06-12T16:51:19.245Z,19.19
2018-06-12T16:53:47.246Z,19.30
2018-06-12T16:56:15.307Z,19.42
2018-06-12T16:58:43.327Z,19.57
2018-06-12T17:01:11.434Z,19.74
2018-06-12T17:03:39.540Z,19.99
2018-06-12T17:06:07.561Z,19.95
2018-06-12T17:08:35.668Z,19.53
2018-06-12T17:11:03.720Z,19.34
2018-06-12T17:13:31.781Z,19.35
2018-06-12T17:15:59.796Z,19.26
2018-06-12T17:18:27.828Z,19.29
2018-06-12T17:20:55.838Z,19.72
2018-06-12T17:23:23.853Z,19.81
2018-06-12T17:25:51.877Z,19.72
2018-06-12T17:28:19.915Z,19.48
2018-06-12T17:30:47.907Z,19.15
2018-06-12T17:33:15.960Z,19.12
2018-06-12T17:35:43.977Z,19.01
2018-06-12T17:38:11.992Z,18.78
2018-06-12T17:40:40.021Z,18.74
2018-06-12T17:43:08.060Z,18.58
2018-06-12T17:45:36.092Z,18.69
2018-06-12T17:48:04.092Z,18.79
2018-06-12T17:50:32.081Z,18.96
2018-06-12T17:53:00.126Z,19.04
2018-06-12T17:55:28.167Z,18.88
2018-06-12T17:57:56.156Z,18.98
2018-06-12T18:00:24.153Z,19.09
2018-06-12T18:02:52.205Z,19.00
2018-06-12T18:05:20.214Z,18.86
2018-06-12T18:07:48.535Z,18.76
2018-06-12T18:10:16.577Z,18.72
2018-06-12T18:12:44.645Z,18.60
2018-06-12T18:15:12.707Z,18.54
2018-06-12T18:17:40.744Z,18.44
2018-06-12T18:20:08.756Z,18.60
2018-06-12T18:22:36.785Z,18.56
2018-06-12T18:25:04.797Z,18.57
2018-06-12T18:27:32.824Z,18.61
2018-06-12T18:30:00.841Z,18.51
2018-06-12T18:32:28.840Z,18.71
2018-06-12T18:34:56.869Z,18.46
2018-06-12T18:37:25.056Z,18.32
2018-06-12T18:39:53.026Z,18.20
2018-06-12T18:42:21.033Z,18.31
2018-06-12T18:44:49.055Z,18.46
2018-06-12T18:47:17.032Z,18.22
2018-06-12T18:49:45.052Z,18.23
2018-06-12T18:52:13.044Z,18.25
2018-06-12T18:54:41.073Z,18.26
2018-06-12T18:57:09.117Z,18.18
2018-06-12T18:59:37.181Z,18.12
2018-06-12T19:02:05.220Z,18.00
2018-06-12T19:04:33.234Z,17.99
2018-06-12T19:07:01.316Z,18.05
2018-06-12T19:09:29.321Z,17.86
2018-06-12T19:11:57.341Z,17.59
2018-06-12T19:14:25.352Z,17.65
2018-06-12T19:16:53.377Z,17.47
2018-06-12T19:19:21.479Z,17.44
2018-06-12T19:21:49.535Z,17.48
2018-06-12T19:24:17.572Z,17.59
2018-06-12T19:26:45.639Z,17.71
2018-06-12T19:29:13.684Z,17.83
2018-06-12T19:31:41.796Z,17.88
2018-06-12T19:34:09.829Z,17.88
2018-06-12T19:36:37.876Z,17.81
2018-06-12T19:39:07.172Z,17.69
2018-06-12T19:41:35.363Z,17.42
2018-06-12T19:44:03.370Z,17.34
2018-06-12T19:46:31.378Z,17.28
2018-06-12T19:48:59.380Z,17.29
2018-06-12T19:51:27.433Z,17.33
2018-06-12T19:53:55.542Z,17.45
2018-06-12T19:56:23.536Z,17.44
2018-06-12T19:58:51.557Z,17.24
2018-06-12T20:01:19.555Z,17.19
2018-06-12T20:03:47.619Z,17.25
2018-06-12T20:06:15.669Z,17.05
2018-06-12T20:08:43.728Z,17.12
2018-06-12T20:11:12.005Z,17.11
2018-06-12T20:13:40.007Z,17.15
2018-06-12T20:16:08.041Z,16.94
2018-06-12T20:18:36.047Z,16.77
2018-06-12T20:21:04.065Z,16.84
2018-06-12T20:23:32.066Z,16.64
2018-06-12T20:26:00.080Z,16.71
2018-06-12T20:28:28.068Z,16.92
2018-06-12T20:30:56.072Z,16.87
2018-06-12T20:33:24.093Z,16.80
2018-06-12T20:35:52.093Z,16.89
2018-06-12T20:38:20.092Z,16.87
2018-06-12T20:40:48.098Z,16.77
2018-06-12T20:43:16.108Z,16.70
2018-06-12T20:45:44.138Z,16.62
2018-06-12T20:48:12.114Z,16.73
2018-06-12T20:50:40.124Z,16.74
2018-06-12T20:53:08.137Z,16.78
2018-06-12T20:55:36.173Z,16.94
2018-06-12T20:58:04.189Z,16.99
2018-06-12T21:00:32.184Z,16.63
2018-06-12T21:03:00.208Z,16.66
2018-06-12T21:05:28.220Z,16.82
2018-06-12T21:07:56.324Z,16.82
2018-06-12T21:10:24.356Z,16.79
2018-06-12T21:12:52.410Z,16.84
2018-06-12T21:15:20.382Z,16.84
2018-06-12T21:17:49.421Z,16.97
2018-06-12T21:20:17.474Z,17.12
2018-06-12T21:22:45.468Z,17.19
2018-06-12T21:25:13.533Z,17.23
2018-06-12T21:27:41.551Z,17.34
2018-06-12T21:30:09.572Z,17.20
2018-06-12T21:32:37.607Z,17.24
2018-06-12T21:35:05.705Z,16.97
2018-06-12T21:37:33.719Z,16.98
2018-06-12T21:40:01.719Z,16.97
2018-06-12T21:42:29.728Z,16.95
2018-06-12T21:44:57.738Z,16.78
2018-06-12T21:47:25.748Z,16.61
2018-06-12T21:49:53.744Z,16.16
2018-06-12T21:52:21.752Z,16.16
2018-06-12T21:54:49.754Z,16.21
2018-06-12T21:57:17.741Z,16.16
2018-06-12T21:59:45.756Z,16.27
2018-06-12T22:02:13.728Z,16.22
2018-06-12T22:04:41.772Z,16.28
2018-06-12T22:07:09.774Z,16.23
2018-06-12T22:09:37.796Z,16.25
2018-06-12T22:12:05.845Z,16.08
2018-06-12T22:14:33.825Z,16.08
2018-06-12T22:17:01.834Z,15.98
2018-06-12T22:19:29.804Z,16.13
2018-06-12T22:21:57.889Z,16.09
2018-06-12T22:24:26.965Z,16.18
2018-06-12T22:26:54.996Z,16.18
2018-06-12T22:29:22.992Z,16.19
2018-06-12T22:31:51.064Z,16.21
2018-06-12T22:34:19.077Z,16.27
2018-06-12T22:36:47.144Z,16.05
2018-06-12T22:39:15.166Z,16.04
2018-06-12T22:41:44.080Z,16.05
2018-06-12T22:44:12.088Z,15.96
2018-06-12T22:46:40.113Z,16.09
2018-06-12T22:49:08.111Z,16.10
2018-06-12T22:51:36.136Z,16.06
2018-06-12T22:54:04.147Z,15.95
2018-06-12T22:56:32.194Z,16.10
2018-06-12T22:59:00.165Z,16.18
2018-06-12T23:01:28.186Z,16.22
2018-06-12T23:03:56.201Z,16.19
2018-06-12T23:06:24.218Z,16.01
2018-06-12T23:08:52.252Z,16.13
2018-06-12T23:11:20.265Z,16.30
2018-06-12T23:13:48.273Z,16.36
2018-06-12T23:16:16.264Z,16.13
2018-06-12T23:18:45.124Z,16.08
2018-06-12T23:21:24.564Z,15.97
2018-06-12T23:23:52.546Z,15.86
2018-06-12T23:26:20.558Z,15.92
2018-06-12T23:28:49.395Z,16.00
2018-06-12T23:31:17.455Z,15.88
2018-06-12T23:33:48.556Z,15.68
2018-06-12T23:36:16.561Z,15.72
2018-06-12T23:38:44.571Z,15.78
2018-06-12T23:41:12.701Z,15.73
2018-06-12T23:43:40.732Z,15.86
2018-06-12T23:46:08.733Z,15.84
2018-06-12T23:48:36.725Z,15.80
2018-06-12T23:51:05.532Z,15.97
2018-06-12T23:53:33.524Z,15.91
2018-06-12T23:56:01.666Z,16.13
2018-06-12T23:58:29.740Z,16.22
